Time;durP1;ratioP1;P1;durP2;ratioP2;P2;SDS_P1;SDS_P2;PMS_P1;PMS_P2;Temp;Humidity;BMP_temperature;BMP_pressure;BME280_temperature;BME280_humidity;BME280_pressure;Samples;Min_cycle;Max_cycle;Signal;HPM_P1;HPM_P2
2023/07/14 00:00:47;;;;;;;13.35;11.52;;;18.70;99.90;;;;;;5081963;28;20021;-70
2023/07/14 00:03:16;;;;;;;12.18;10.95;;;18.70;99.90;;;;;;5080789;28;20024;-70
2023/07/14 00:05:43;;;;;;;14.70;10.70;;;18.70;99.90;;;;;;5080008;28;20515;-70
2023/07/14 00:08:18;;;;;;;15.27;12.32;;;18.80;99.90;;;;;;5083686;28;20485;-70
2023/07/14 00:10:44;;;;;;;13.52;11.65;;;18.70;99.90;;;;;;5082306;28;20024;-70
2023/07/14 00:13:10;;;;;;;13.35;11.95;;;18.50;99.90;;;;;;5087383;28;20027;-70
2023/07/14 00:15:38;;;;;;;12.23;10.82;;;18.60;99.90;;;;;;5086462;28;20388;-70
2023/07/14 00:18:18;;;;;;;12.07;10.88;;;18.60;99.90;;;;;;5081935;28;20531;-70
2023/07/14 00:20:44;;;;;;;14.35;12.02;;;18.60;99.90;;;;;;5081855;28;20020;-70
2023/07/14 00:23:14;;;;;;;12.20;10.93;;;18.60;99.90;;;;;;5090159;28;20483;-70
2023/07/14 00:25:40;;;;;;;11.65;10.57;;;18.50;99.90;;;;;;5083843;28;20032;-70
2023/07/14 00:28:17;;;;;;;13.07;11.88;;;18.60;99.90;;;;;;5089952;28;20483;-70
2023/07/14 00:30:43;;;;;;;15.77;12.18;;;18.60;99.90;;;;;;5075210;28;20040;-70
2023/07/14 00:33:17;;;;;;;12.18;10.95;;;18.50;99.90;;;;;;5087378;28;20024;-70
2023/07/14 00:35:43;;;;;;;14.10;12.75;;;18.50;99.90;;;;;;5087211;28;20035;-70
2023/07/14 00:38:10;;;;;;;13.75;11.52;;;18.50;99.90;;;;;;5081110;28;20158;-70
2023/07/14 00:40:39;;;;;;;12.55;11.25;;;18.50;99.90;;;;;;5079568;28;20035;-70
2023/07/14 00:43:12;;;;;;;13.55;12.15;;;18.50;99.90;;;;;;5081195;28;20025;-70
2023/07/14 00:45:38;;;;;;;12.68;11.38;;;18.50;99.90;;;;;;5079152;28;20028;-70
2023/07/14 00:48:05;;;;;;;13.18;11.77;;;18.40;99.90;;;;;;5078429;28;20025;-70
2023/07/14 00:50:43;;;;;;;16.58;14.95;;;18.40;99.90;;;;;;5082853;28;20024;-70
2023/07/14 00:53:18;;;;;;;14.05;12.05;;;18.40;99.90;;;;;;5079703;28;20036;-70
2023/07/14 00:55:48;;;;;;;14.75;12.30;;;18.40;99.90;;;;;;5080886;28;20046;-70
2023/07/14 00:58:20;;;;;;;13.40;11.45;;;18.40;99.90;;;;;;5046442;28;1107032;-70
2023/07/14 01:01:12;;;;;;;12.93;10.82;;;18.40;99.90;;;;;;5081907;28;20549;-70
2023/07/14 01:03:40;;;;;;;12.52;11.40;;;18.30;99.90;;;;;;5082911;28;20024;-70
2023/07/14 01:06:11;;;;;;;13.77;11.90;;;18.40;99.90;;;;;;5090185;28;20047;-70
2023/07/14 01:08:45;;;;;;;16.65;14.25;;;18.30;99.90;;;;;;5080170;28;20050;-70
2023/07/14 01:11:11;;;;;;;13.77;12.10;;;18.40;99.90;;;;;;5084831;28;20027;-70
2023/07/14 01:13:36;;;;;;;14.40;11.77;;;18.40;99.90;;;;;;5080336;28;20028;-70
2023/07/14 01:16:02;;;;;;;11.68;10.48;;;18.40;99.90;;;;;;5079787;28;20127;-70
2023/07/14 01:18:29;;;;;;;16.80;12.65;;;18.30;99.90;;;;;;5079806;28;20050;-70
2023/07/14 01:20:55;;;;;;;15.48;13.15;;;18.40;99.90;;;;;;5078577;28;20480;-70
2023/07/14 01:23:49;;;;;;;14.23;12.68;;;18.30;99.90;;;;;;5079372;28;20388;-70
2023/07/14 01:26:47;;;;;;;18.50;15.35;;;18.30;99.90;;;;;;5076974;28;20036;-70
2023/07/14 01:29:13;;;;;;;15.93;14.43;;;18.30;99.90;;;;;;5082444;28;20136;-70
2023/07/14 01:31:39;;;;;;;19.45;16.25;;;18.30;99.90;;;;;;5080844;28;20107;-70
2023/07/14 01:34:05;;;;;;;17.58;14.93;;;18.30;99.90;;;;;;5076711;28;20024;-70
2023/07/14 01:36:32;;;;;;;17.80;15.88;;;18.30;99.90;;;;;;5078478;28;20562;-70
2023/07/14 01:38:57;;;;;;;14.73;12.55;;;18.30;99.90;;;;;;5077848;28;20473;-70
2023/07/14 01:41:23;;;;;;;15.60;12.27;;;18.30;99.90;;;;;;5076603;28;20066;-70
2023/07/14 01:43:49;;;;;;;12.88;11.68;;;18.30;99.90;;;;;;5081676;28;20380;-70
2023/07/14 01:46:22;;;;;;;15.10;13.15;;;18.30;99.90;;;;;;5081161;28;20476;-70
2023/07/14 01:48:59;;;;;;;17.42;15.43;;;18.30;99.90;;;;;;5084027;28;20589;-70
2023/07/14 01:51:31;;;;;;;17.65;14.65;;;18.30;99.90;;;;;;5085242;28;20048;-70
2023/07/14 01:54:21;;;;;;;17.88;15.90;;;18.20;99.90;;;;;;5082887;28;20129;-70
2023/07/14 01:56:48;;;;;;;16.27;14.77;;;18.30;99.90;;;;;;5080512;28;20042;-70
2023/07/14 01:59:25;;;;;;;19.63;15.48;;;18.30;99.90;;;;;;5082677;28;20043;-70
2023/07/14 02:01:53;;;;;;;17.10;15.27;;;18.20;99.90;;;;;;5081174;28;20020;-70
2023/07/14 02:04:26;;;;;;;16.98;15.20;;;18.20;99.90;;;;;;5077413;28;20059;-70
2023/07/14 02:06:52;;;;;;;17.23;14.75;;;18.20;99.90;;;;;;5080235;28;20032;-70
2023/07/14 02:09:21;;;;;;;17.90;14.73;;;18.10;99.90;;;;;;5085567;28;20033;-70
2023/07/14 02:11:49;;;;;;;19.40;15.20;;;18.10;99.90;;;;;;5083338;28;20479;-70
2023/07/14 02:14:18;;;;;;;19.08;15.75;;;18.10;99.90;;;;;;5078877;28;20504;-70
2023/07/14 02:16:49;;;;;;;16.35;14.40;;;18.10;99.90;;;;;;5081271;28;20032;-70
2023/07/14 02:19:24;;;;;;;16.85;14.80;;;18.00;99.90;;;;;;5086061;28;20050;-70
2023/07/14 02:21:51;;;;;;;18.65;13.25;;;18.10;99.90;;;;;;5076837;28;20082;-70
2023/07/14 02:24:22;;;;;;;15.40;13.75;;;18.00;99.90;;;;;;5078977;28;20024;-70
2023/07/14 02:27:02;;;;;;;17.07;14.23;;;18.00;99.90;;;;;;5080828;28;20020;-70
2023/07/14 02:29:29;;;;;;;17.60;14.45;;;18.00;99.90;;;;;;5082262;28;20107;-70
2023/07/14 02:32:04;;;;;;;19.42;15.80;;;17.90;99.90;;;;;;5077712;28;20024;-70
2023/07/14 02:34:39;;;;;;;17.50;14.30;;;17.90;99.90;;;;;;5078736;28;20476;-70
2023/07/14 02:38:00;;;;;;;15.52;13.85;;;18.00;99.90;;;;;;5080173;28;20116;-70
2023/07/14 02:40:23;;;;;;;18.45;14.48;;;17.90;99.90;;;;;;5076464;28;20031;-70
2023/07/14 02:42:52;;;;;;;14.88;13.48;;;17.90;99.90;;;;;;5075408;28;20028;-70
2023/07/14 02:45:19;;;;;;;15.60;12.77;;;17.90;99.90;;;;;;5080814;28;20481;-70
2023/07/14 02:47:47;;;;;;;14.85;13.45;;;17.90;99.90;;;;;;5082315;28;20115;-70
2023/07/14 02:50:13;;;;;;;14.38;12.90;;;17.90;99.90;;;;;;5077987;28;20030;-70
2023/07/14 02:52:39;;;;;;;16.45;14.77;;;17.90;99.90;;;;;;5079401;28;20028;-70
2023/07/14 02:55:07;;;;;;;18.33;13.95;;;17.80;99.90;;;;;;5077436;28;20521;-70
2023/07/14 02:57:34;;;;;;;16.20;14.27;;;17.80;99.90;;;;;;5087340;28;20028;-70
2023/07/14 02:59:59;;;;;;;17.90;14.05;;;17.80;99.90;;;;;;5080047;28;20028;-70
2023/07/14 03:02:25;;;;;;;16.80;14.57;;;17.80;99.90;;;;;;5080721;28;20027;-70
2023/07/14 03:04:51;;;;;;;15.40;13.52;;;17.80;99.90;;;;;;5088309;28;20039;-70
2023/07/14 03:07:16;;;;;;;18.67;14.38;;;17.70;99.90;;;;;;5079526;28;20078;-70
2023/07/14 03:09:42;;;;;;;17.75;13.70;;;17.70;99.90;;;;;;5081821;28;20028;-70
2023/07/14 03:12:08;;;;;;;16.75;14.60;;;17.70;99.90;;;;;;5078305;28;20358;-70
2023/07/14 03:14:34;;;;;;;17.30;12.88;;;17.70;99.90;;;;;;5081182;28;20028;-70
2023/07/14 03:17:00;;;;;;;17.35;12.80;;;17.70;99.90;;;;;;5078697;28;20020;-70
2023/07/14 03:19:26;;;;;;;15.65;12.38;;;17.70;99.90;;;;;;5079477;28;20119;-70
2023/07/14 03:21:51;;;;;;;15.45;13.65;;;17.70;99.90;;;;;;5085341;28;20159;-70
2023/07/14 03:24:17;;;;;;;15.52;12.68;;;17.70;99.90;;;;;;5077104;28;20028;-70
2023/07/14 03:26:43;;;;;;;13.68;11.52;;;17.60;99.90;;;;;;5085831;28;20483;-70
2023/07/14 03:29:08;;;;;;;16.38;12.30;;;17.60;99.90;;;;;;5083074;28;20037;-70
2023/07/14 03:31:34;;;;;;;14.25;11.05;;;17.60;99.90;;;;;;5074983;28;20017;-70
2023/07/14 03:34:00;;;;;;;13.85;11.93;;;17.60;99.90;;;;;;5077685;28;20024;-70
2023/07/14 03:36:25;;;;;;;11.68;10.45;;;17.60;99.90;;;;;;5080668;28;20369;-70
2023/07/14 03:39:26;;;;;;;13.45;10.93;;;17.70;99.90;;;;;;5076106;28;20495;-70
2023/07/14 03:41:53;;;;;;;12.18;10.93;;;17.60;99.90;;;;;;5087695;28;20023;-70
2023/07/14 03:44:19;;;;;;;14.57;11.75;;;17.60;99.90;;;;;;5083702;28;20024;-70
2023/07/14 03:46:45;;;;;;;12.55;10.60;;;17.60;99.90;;;;;;5083375;28;20020;-70
2023/07/14 03:49:12;;;;;;;12.48;10.85;;;17.60;99.90;;;;;;5084197;28;20039;-70
2023/07/14 03:51:37;;;;;;;12.57;9.93;;;17.60;99.90;;;;;;5083763;28;20028;-70
2023/07/14 03:54:03;;;;;;;16.30;11.32;;;17.60;99.90;;;;;;5085024;28;20029;-70
2023/07/14 03:56:28;;;;;;;13.35;9.82;;;17.60;99.90;;;;;;5082895;28;20484;-70
2023/07/14 03:58:54;;;;;;;12.98;10.23;;;17.60;99.90;;;;;;5086823;28;20043;-70
2023/07/14 04:01:20;;;;;;;13.68;10.55;;;17.60;99.90;;;;;;5087714;28;20468;-70
2023/07/14 04:03:47;;;;;;;12.88;9.73;;;17.60;99.90;;;;;;5078892;28;20034;-70
2023/07/14 04:06:14;;;;;;;12.63;9.77;;;17.60;99.90;;;;;;5083505;28;20020;-70
2023/07/14 04:08:41;;;;;;;12.93;10.63;;;17.60;99.90;;;;;;5086199;28;20029;-70
2023/07/14 04:11:07;;;;;;;10.63;9.52;;;17.60;99.90;;;;;;5077722;28;20021;-70
2023/07/14 04:13:33;;;;;;;10.68;9.23;;;17.60;99.90;;;;;;5081051;28;20021;-70
2023/07/14 04:15:59;;;;;;;11.25;8.60;;;17.50;99.90;;;;;;5084633;28;20336;-70
2023/07/14 04:18:24;;;;;;;10.50;8.68;;;17.50;99.90;;;;;;5081416;28;20472;-70
2023/07/14 04:20:50;;;;;;;13.32;9.52;;;17.60;99.90;;;;;;5083695;28;20389;-70
2023/07/14 04:23:17;;;;;;;11.77;9.00;;;17.60;99.90;;;;;;5082936;28;20043;-70
2023/07/14 04:25:44;;;;;;;12.90;9.48;;;17.60;99.90;;;;;;5080386;28;20032;-70
2023/07/14 04:28:10;;;;;;;14.18;8.27;;;17.60;99.90;;;;;;5080269;28;20110;-70
2023/07/14 04:30:36;;;;;;;14.10;8.27;;;17.60;99.90;;;;;;5081639;28;20465;-70
2023/07/14 04:33:04;;;;;;;11.68;8.57;;;17.60;99.90;;;;;;5076467;28;20024;-70
2023/07/14 04:35:29;;;;;;;15.88;8.98;;;17.60;99.90;;;;;;5083914;28;20020;-70
2023/07/14 04:37:55;;;;;;;10.05;8.07;;;17.60;99.90;;;;;;5080842;28;20043;-70
2023/07/14 04:40:21;;;;;;;11.07;8.57;;;17.60;99.90;;;;;;5090075;28;20028;-70
2023/07/14 04:42:47;;;;;;;13.32;8.07;;;17.50;99.90;;;;;;5082237;28;20036;-70
2023/07/14 04:45:16;;;;;;;13.27;8.25;;;17.60;99.90;;;;;;5078828;28;20557;-70
2023/07/14 04:47:42;;;;;;;12.25;7.28;;;17.60;99.90;;;;;;5076482;28;20086;-70
2023/07/14 04:50:09;;;;;;;9.80;7.60;;;17.60;99.90;;;;;;5079331;28;20503;-70
2023/07/14 04:52:35;;;;;;;8.68;7.60;;;17.60;99.90;;;;;;5078745;28;20050;-70
2023/07/14 04:55:00;;;;;;;12.02;6.97;;;17.60;99.90;;;;;;5080845;28;20059;-70
2023/07/14 04:57:26;;;;;;;12.35;7.40;;;17.60;99.90;;;;;;5082380;28;20033;-70
2023/07/14 04:59:51;;;;;;;9.93;7.25;;;17.60;99.90;;;;;;5078229;28;20174;-70
2023/07/14 05:02:17;;;;;;;9.55;7.10;;;17.70;99.90;;;;;;5085340;28;20036;-70
2023/07/14 05:04:43;;;;;;;11.07;6.47;;;17.70;99.90;;;;;;5080258;28;20477;-70
2023/07/14 05:07:09;;;;;;;9.27;6.78;;;17.60;99.90;;;;;;5085440;28;20079;-70
2023/07/14 05:09:35;;;;;;;10.25;6.60;;;17.70;99.90;;;;;;5078959;28;20052;-70
2023/07/14 05:12:01;;;;;;;8.30;6.30;;;17.60;99.90;;;;;;5082512;28;20032;-70
2023/07/14 05:14:27;;;;;;;8.10;5.90;;;17.60;99.90;;;;;;5083915;28;20021;-70
2023/07/14 05:16:53;;;;;;;6.72;5.65;;;17.60;99.90;;;;;;5083956;28;20038;-70
2023/07/14 05:19:19;;;;;;;7.18;5.50;;;17.60;99.90;;;;;;5079270;28;20020;-70
2023/07/14 05:21:45;;;;;;;8.43;6.32;;;17.70;99.90;;;;;;5083359;28;20024;-70
2023/07/14 05:24:11;;;;;;;12.70;6.28;;;17.70;99.90;;;;;;5083632;28;20020;-70
2023/07/14 05:26:37;;;;;;;8.38;5.70;;;17.70;99.90;;;;;;5085158;28;20029;-70
2023/07/14 05:29:05;;;;;;;9.13;5.53;;;17.60;99.90;;;;;;5082180;28;20404;-71
2023/07/14 05:31:32;;;;;;;8.20;6.03;;;17.70;99.90;;;;;;5080306;28;20023;-70
2023/07/14 05:33:58;;;;;;;12.32;6.68;;;17.80;99.90;;;;;;5081572;28;20469;-70
2023/07/14 05:36:24;;;;;;;8.45;5.45;;;17.80;99.90;;;;;;5081690;28;20038;-71
2023/07/14 05:38:50;;;;;;;10.38;5.13;;;17.80;99.90;;;;;;5077189;28;20016;-71
2023/07/14 05:41:16;;;;;;;10.68;5.03;;;17.80;99.90;;;;;;5079527;28;20020;-72
2023/07/14 05:43:42;;;;;;;7.10;5.05;;;17.90;99.90;;;;;;5085687;28;20027;-71
2023/07/14 05:46:07;;;;;;;9.50;5.20;;;18.00;99.90;;;;;;5086063;28;20521;-72
2023/07/14 05:48:33;;;;;;;10.05;5.10;;;18.10;99.90;;;;;;5080771;28;20101;-71
2023/07/14 05:50:59;;;;;;;10.15;5.97;;;18.10;99.90;;;;;;5082384;28;20012;-71
2023/07/14 05:53:24;;;;;;;8.25;5.22;;;18.10;99.90;;;;;;5078579;28;20032;-71
2023/07/14 05:55:50;;;;;;;8.07;5.38;;;18.10;99.90;;;;;;5079420;28;20103;-71
2023/07/14 05:58:16;;;;;;;9.15;5.15;;;18.10;99.90;;;;;;5080117;28;20081;-71
2023/07/14 06:00:42;;;;;;;11.10;5.40;;;18.20;99.90;;;;;;5083394;28;20020;-71
2023/07/14 06:03:16;;;;;;;9.63;4.72;;;18.30;99.90;;;;;;5079932;28;20032;-72
2023/07/14 06:05:42;;;;;;;9.27;5.07;;;18.20;99.90;;;;;;5077013;28;20020;-71
2023/07/14 06:08:08;;;;;;;9.88;4.40;;;18.30;99.90;;;;;;5078773;28;20096;-71
2023/07/14 06:10:37;;;;;;;6.47;3.85;;;18.40;99.90;;;;;;5076256;28;20095;-71
2023/07/14 06:13:03;;;;;;;8.90;4.63;;;18.30;99.90;;;;;;5081440;28;20016;-71
2023/07/14 06:15:29;;;;;;;13.88;4.53;;;18.40;99.90;;;;;;5080737;28;20024;-71
2023/07/14 06:17:55;;;;;;;8.30;3.92;;;18.50;99.90;;;;;;5079990;28;20020;-72
2023/07/14 06:20:21;;;;;;;6.50;3.97;;;18.60;99.90;;;;;;5083048;28;20039;-71
2023/07/14 06:22:48;;;;;;;11.00;3.90;;;18.60;99.90;;;;;;5085238;28;20397;-69
2023/07/14 06:25:14;;;;;;;7.88;4.13;;;18.50;99.90;;;;;;5081041;28;20035;-69
2023/07/14 06:27:40;;;;;;;6.57;3.45;;;18.60;99.90;;;;;;5082143;28;20031;-69
2023/07/14 06:30:07;;;;;;;7.05;4.32;;;18.60;99.90;;;;;;5078436;28;20394;-69
2023/07/14 06:32:32;;;;;;;4.65;3.25;;;18.60;99.90;;;;;;5081784;28;20020;-72
2023/07/14 06:34:58;;;;;;;5.72;3.30;;;18.50;99.90;;;;;;5076444;28;20035;-70
2023/07/14 06:37:25;;;;;;;5.88;3.50;;;18.60;99.90;;;;;;5076281;28;20020;-68
2023/07/14 06:39:51;;;;;;;8.35;3.50;;;18.70;99.90;;;;;;5075394;28;20103;-70
2023/07/14 06:42:17;;;;;;;8.80;3.47;;;18.70;99.90;;;;;;5081124;28;20024;-70
2023/07/14 06:44:43;;;;;;;7.97;3.42;;;18.60;99.90;;;;;;5083416;28;20713;-69
2023/07/14 06:47:08;;;;;;;7.40;3.13;;;18.70;99.90;;;;;;5075663;28;20036;-71
2023/07/14 06:49:34;;;;;;;5.15;2.88;;;18.70;99.90;;;;;;5078932;28;20019;-72
2023/07/14 06:52:00;;;;;;;10.93;3.53;;;18.80;99.90;;;;;;5077957;28;20440;-69
2023/07/14 06:54:26;;;;;;;7.68;3.70;;;18.80;99.90;;;;;;5080678;28;20035;-70
2023/07/14 06:56:54;;;;;;;5.47;3.00;;;18.90;99.90;;;;;;5082696;28;20030;-71
2023/07/14 06:59:20;;;;;;;7.40;3.35;;;19.00;99.90;;;;;;5072780;28;20032;-71
2023/07/14 07:01:45;;;;;;;4.13;2.67;;;19.10;99.90;;;;;;5082080;28;20028;-71
2023/07/14 07:04:11;;;;;;;5.85;2.70;;;19.20;99.90;;;;;;5080770;28;20500;-71
2023/07/14 07:06:37;;;;;;;4.82;2.97;;;19.20;99.90;;;;;;5079813;28;20028;-71
2023/07/14 07:09:02;;;;;;;8.43;3.30;;;19.30;99.90;;;;;;5084423;28;20025;-72
2023/07/14 07:11:28;;;;;;;6.80;3.00;;;19.40;99.90;;;;;;5084336;28;20024;-70
2023/07/14 07:13:54;;;;;;;9.73;3.22;;;19.40;99.90;;;;;;5083874;28;20492;-69
2023/07/14 07:16:19;;;;;;;13.13;3.10;;;19.50;99.90;;;;;;5080251;28;20116;-70
2023/07/14 07:18:45;;;;;;;6.45;2.92;;;19.60;99.90;;;;;;5077252;28;20066;-70
2023/07/14 07:21:12;;;;;;;5.13;3.47;;;19.70;99.90;;;;;;5082564;28;20024;-70
2023/07/14 07:23:38;;;;;;;5.40;3.13;;;19.80;99.90;;;;;;5088409;28;20417;-70
2023/07/14 07:26:04;;;;;;;6.20;3.15;;;19.90;99.90;;;;;;5085914;28;20149;-71
2023/07/14 07:28:29;;;;;;;7.70;3.55;;;19.90;99.90;;;;;;5081908;28;20086;-69
2023/07/14 07:30:55;;;;;;;8.10;3.20;;;20.00;99.90;;;;;;5084889;28;20028;-69
2023/07/14 07:33:21;;;;;;;6.95;3.25;;;20.00;99.90;;;;;;5085666;28;20032;-69
2023/07/14 07:35:46;;;;;;;5.18;2.58;;;20.00;99.90;;;;;;5083032;28;20016;-69
2023/07/14 07:38:13;;;;;;;7.20;3.55;;;20.00;99.90;;;;;;5085738;28;20575;-71
2023/07/14 07:40:40;;;;;;;6.60;3.50;;;20.00;99.90;;;;;;5091384;28;20024;-72
2023/07/14 07:43:07;;;;;;;8.10;3.40;;;20.10;99.90;;;;;;5089512;28;20065;-72
2023/07/14 07:45:32;;;;;;;9.00;3.40;;;20.20;99.90;;;;;;5090684;28;20032;-70
2023/07/14 07:47:58;;;;;;;6.90;3.20;;;20.20;99.90;;;;;;5079864;28;20032;-70
2023/07/14 07:50:26;;;;;;;7.07;3.10;;;20.40;99.90;;;;;;5083171;28;20035;-71
2023/07/14 07:52:52;;;;;;;8.95;3.45;;;20.40;99.90;;;;;;5087739;28;20016;-69
2023/07/14 07:55:18;;;;;;;6.10;3.38;;;20.50;99.90;;;;;;5083156;28;20032;-70
2023/07/14 07:57:47;;;;;;;8.55;3.05;;;20.40;99.90;;;;;;5087457;28;20032;-69
2023/07/14 08:00:15;;;;;;;4.72;2.80;;;20.50;99.90;;;;;;5084419;28;20464;-69
2023/07/14 08:02:41;;;;;;;5.00;3.22;;;20.50;99.90;;;;;;5081761;28;20031;-70
2023/07/14 08:05:10;;;;;;;5.88;3.53;;;20.50;99.90;;;;;;5079093;28;20028;-71
2023/07/14 08:07:35;;;;;;;7.15;2.80;;;20.40;99.90;;;;;;5082821;28;20028;-71
2023/07/14 08:10:01;;;;;;;7.70;3.45;;;20.50;99.90;;;;;;5081624;28;20134;-71
2023/07/14 08:12:27;;;;;;;7.85;3.22;;;20.60;99.90;;;;;;5084694;28;20063;-70
2023/07/14 08:14:54;;;;;;;9.55;3.70;;;20.50;99.90;;;;;;5084626;28;20059;-71
2023/07/14 08:17:24;;;;;;;7.63;3.70;;;20.40;99.90;;;;;;5079525;28;20598;-71
2023/07/14 08:19:50;;;;;;;8.30;3.55;;;20.50;99.90;;;;;;5078531;28;20046;-71
2023/07/14 08:22:16;;;;;;;7.65;3.30;;;20.70;99.90;;;;;;5077884;28;20493;-71
2023/07/14 08:24:42;;;;;;;6.40;3.35;;;20.80;99.90;;;;;;5080218;28;20036;-72
2023/07/14 08:27:08;;;;;;;10.60;3.80;;;21.00;99.90;;;;;;5081657;28;20097;-74
2023/07/14 08:29:33;;;;;;;6.80;3.17;;;21.10;99.90;;;;;;5082242;28;20036;-68
2023/07/14 08:31:59;;;;;;;6.47;3.15;;;21.20;99.90;;;;;;5084944;28;20059;-69
2023/07/14 08:34:27;;;;;;;11.57;4.32;;;21.30;99.90;;;;;;5083074;28;20031;-68
2023/07/14 08:36:53;;;;;;;7.63;3.08;;;21.30;99.90;;;;;;5081160;28;20024;-68
2023/07/14 08:39:19;;;;;;;8.35;3.20;;;21.40;99.90;;;;;;5080834;28;20385;-68
2023/07/14 08:41:46;;;;;;;6.50;3.17;;;21.70;99.90;;;;;;5082952;28;20037;-68
2023/07/14 08:44:31;;;;;;;8.10;3.05;;;21.80;99.90;;;;;;5085158;28;20016;-68
2023/07/14 08:47:19;;;;;;;9.88;3.50;;;21.90;99.90;;;;;;5080604;28;20116;-69
2023/07/14 08:50:03;;;;;;;6.03;2.50;;;22.00;99.90;;;;;;5083486;28;20070;-68
2023/07/14 08:52:34;;;;;;;9.23;3.42;;;22.10;99.90;;;;;;5082751;28;20032;-68
2023/07/14 08:55:03;;;;;;;6.55;3.40;;;22.00;99.90;;;;;;5084704;28;20021;-69
2023/07/14 08:57:30;;;;;;;6.93;2.63;;;22.20;99.90;;;;;;5078122;28;20028;-70
2023/07/14 09:00:00;;;;;;;5.10;2.67;;;22.40;99.90;;;;;;5086389;28;20155;-69
2023/07/14 09:02:33;;;;;;;7.35;3.13;;;22.40;99.90;;;;;;5079797;28;20037;-72
2023/07/14 09:05:03;;;;;;;5.00;3.03;;;22.40;99.90;;;;;;5081272;28;20028;-70
2023/07/14 09:07:29;;;;;;;5.43;2.97;;;22.40;99.90;;;;;;5065254;28;20111;-69
2023/07/14 09:09:55;;;;;;;5.70;2.95;;;22.50;99.90;;;;;;5069532;28;20045;-69
2023/07/14 09:13:16;;;;;;;5.35;3.47;;;22.80;99.90;;;;;;5090722;28;20476;-69
2023/07/14 09:15:42;;;;;;;6.65;3.35;;;22.80;99.90;;;;;;5049205;28;20069;-69
2023/07/14 09:18:19;;;;;;;13.45;4.88;;;23.00;99.90;;;;;;5034876;28;20566;-69
2023/07/14 09:20:50;;;;;;;45.78;20.42;;;23.10;99.90;;;;;;5078131;28;20052;-70
2023/07/14 09:23:45;;;;;;;4.88;3.05;;;23.20;99.90;;;;;;5099416;28;20038;-69
2023/07/14 09:26:34;;;;;;;12.38;3.72;;;23.30;99.90;;;;;;5093478;28;20042;-69
2023/07/14 09:29:11;;;;;;;5.65;3.08;;;23.10;99.90;;;;;;5090984;28;20399;-70
2023/07/14 09:31:54;;;;;;;4.82;2.45;;;23.10;99.90;;;;;;5093455;28;20099;-70
2023/07/14 09:34:42;;;;;;;5.28;3.05;;;23.40;99.90;;;;;;5091665;28;20037;-70
2023/07/14 09:37:33;;;;;;;3.38;2.65;;;23.70;99.90;;;;;;5095825;28;20052;-71
2023/07/14 09:40:23;;;;;;;6.60;2.75;;;23.70;99.90;;;;;;5099718;28;20033;-71
2023/07/14 09:42:54;;;;;;;5.03;2.63;;;23.80;99.90;;;;;;5099236;28;20072;-71
2023/07/14 09:45:23;;;;;;;6.20;2.90;;;23.90;99.90;;;;;;5099883;28;20103;-71
2023/07/14 09:48:16;;;;;;;3.10;2.40;;;24.00;99.90;;;;;;5099235;28;20118;-71
2023/07/14 09:50:56;;;;;;;6.60;2.47;;;24.20;99.90;;;;;;5086753;28;20032;-71
2023/07/14 09:53:22;;;;;;;3.25;2.05;;;24.20;99.90;;;;;;5091780;28;20118;-71
2023/07/14 09:55:52;;;;;;;4.82;2.28;;;24.30;99.90;;;;;;5089741;28;20445;-71
2023/07/14 09:58:25;;;;;;;6.30;2.40;;;24.50;99.90;;;;;;5090315;28;20035;-71
2023/07/14 10:00:54;;;;;;;6.60;2.75;;;24.60;99.90;;;;;;5094862;28;20055;-70
2023/07/14 10:03:20;;;;;;;3.67;2.28;;;24.50;99.90;;;;;;5090517;28;20027;-69
2023/07/14 10:05:54;;;;;;;5.18;2.78;;;24.30;99.90;;;;;;5099951;28;20107;-71
2023/07/14 10:08:30;;;;;;;2.55;2.35;;;24.10;99.90;;;;;;5095072;28;22649;-71
2023/07/14 10:10:59;;;;;;;3.13;2.22;;;24.10;99.90;;;;;;5098371;28;20098;-71
2023/07/14 10:13:28;;;;;;;4.43;2.15;;;24.20;99.90;;;;;;5094564;28;20048;-70
2023/07/14 10:16:14;;;;;;;5.43;2.35;;;24.40;99.90;;;;;;5088874;28;20028;-70
2023/07/14 10:18:53;;;;;;;5.00;2.22;;;24.30;99.90;;;;;;5096935;28;20032;-70
2023/07/14 10:21:32;;;;;;;5.22;2.45;;;24.40;99.90;;;;;;5093213;28;20070;-70
2023/07/14 10:24:04;;;;;;;5.18;2.40;;;24.40;99.90;;;;;;5094548;28;20043;-69
2023/07/14 10:26:38;;;;;;;4.85;2.67;;;24.40;99.90;;;;;;5096450;28;20026;-71
2023/07/14 10:29:13;;;;;;;7.43;3.50;;;24.60;99.90;;;;;;5092487;28;20036;-70
2023/07/14 10:32:01;;;;;;;6.32;2.83;;;24.80;99.90;;;;;;5094559;28;20418;-70
2023/07/14 10:34:49;;;;;;;4.63;2.70;;;24.90;99.90;;;;;;5095522;28;20020;-70
2023/07/14 10:37:27;;;;;;;5.28;2.65;;;24.90;99.90;;;;;;5096871;28;20144;-71
2023/07/14 10:39:59;;;;;;;3.05;2.58;;;25.00;99.90;;;;;;5092703;28;20026;-70
2023/07/14 10:42:31;;;;;;;4.28;2.55;;;25.00;99.90;;;;;;5099675;28;20025;-70
2023/07/14 10:44:58;;;;;;;5.93;2.50;;;25.00;99.90;;;;;;5080471;28;20039;-72
2023/07/14 10:47:36;;;;;;;7.82;2.75;;;25.30;99.90;;;;;;5096571;28;20027;-71
2023/07/14 10:50:18;;;;;;;4.07;2.50;;;25.60;99.90;;;;;;5091237;28;20040;-71
2023/07/14 10:52:51;;;;;;;5.60;2.92;;;25.80;99.90;;;;;;5101228;28;20023;-71
2023/07/14 10:55:24;;;;;;;4.97;2.65;;;25.80;99.90;;;;;;5095260;28;20078;-71
2023/07/14 10:58:13;;;;;;;6.85;2.72;;;25.80;99.90;;;;;;5101096;28;20031;-71
2023/07/14 11:00:51;;;;;;;4.82;3.25;;;25.40;99.90;;;;;;5100254;28;20043;-70
2023/07/14 11:03:34;;;;;;;4.90;2.72;;;25.20;99.90;;;;;;5101271;28;20110;-71
2023/07/14 11:06:20;;;;;;;5.65;2.88;;;24.80;99.90;;;;;;5101695;28;20024;-71
2023/07/14 11:08:53;;;;;;;10.27;3.22;;;24.90;99.90;;;;;;5093052;28;20372;-71
2023/07/14 11:11:51;;;;;;;6.05;2.80;;;24.70;99.90;;;;;;5099553;28;20503;-71
2023/07/14 11:14:33;;;;;;;6.50;2.75;;;24.60;99.90;;;;;;5101717;28;20015;-71
2023/07/14 11:17:21;;;;;;;4.50;3.20;;;24.80;99.90;;;;;;5104667;28;20034;-71
2023/07/14 11:19:58;;;;;;;6.93;3.20;;;24.90;99.90;;;;;;5093030;28;20058;-71
2023/07/14 11:22:42;;;;;;;3.60;3.00;;;25.10;99.90;;;;;;5101623;28;20031;-71
2023/07/14 11:25:47;;;;;;;5.53;2.97;;;25.20;99.90;;;;;;5100719;28;20495;-71
2023/07/14 11:28:40;;;;;;;6.15;2.70;;;25.30;99.90;;;;;;5101901;28;20140;-71
2023/07/14 11:32:05;;;;;;;5.13;2.67;;;25.20;99.90;;;;;;5096033;28;20039;-71
2023/07/14 11:34:39;;;;;;;3.92;2.40;;;25.30;99.90;;;;;;5091098;28;20036;-70
2023/07/14 11:37:05;;;;;;;5.97;2.70;;;25.20;99.90;;;;;;5097186;28;20045;-70
2023/07/14 11:39:53;;;;;;;3.28;2.58;;;25.40;99.90;;;;;;5100189;28;20254;-70
2023/07/14 11:42:21;;;;;;;6.50;2.90;;;25.50;99.90;;;;;;5094469;28;20085;-70
2023/07/14 11:44:48;;;;;;;6.22;2.60;;;25.60;99.90;;;;;;5095284;28;20021;-70
2023/07/14 11:47:35;;;;;;;6.90;2.90;;;25.50;99.90;;;;;;5097698;28;20027;-70
2023/07/14 11:50:08;;;;;;;3.42;2.40;;;25.40;99.90;;;;;;5100457;28;20063;-71
2023/07/14 11:52:38;;;;;;;2.97;2.50;;;25.40;99.90;;;;;;5092791;28;20024;-70
2023/07/14 11:55:27;;;;;;;2.58;2.38;;;25.30;99.90;;;;;;5095645;28;20036;-70
2023/07/14 11:58:10;;;;;;;7.03;3.30;;;25.30;99.90;;;;;;5099036;28;20015;-70
2023/07/14 12:00:43;;;;;;;6.45;3.20;;;25.30;99.90;;;;;;5098722;28;20103;-70
2023/07/14 12:03:44;;;;;;;3.30;2.55;;;25.20;99.90;;;;;;5101139;28;20035;-70
2023/07/14 12:06:19;;;;;;;3.67;2.53;;;25.10;99.90;;;;;;5092459;28;20069;-71
2023/07/14 12:09:10;;;;;;;4.05;2.45;;;25.00;99.90;;;;;;5088903;28;20040;-70
2023/07/14 12:11:39;;;;;;;3.00;2.37;;;25.00;99.90;;;;;;5103616;28;20080;-70
2023/07/14 12:14:27;;;;;;;5.43;3.08;;;25.10;99.90;;;;;;5093194;28;20043;-70
2023/07/14 12:16:53;;;;;;;4.22;2.05;;;25.10;99.90;;;;;;5095191;28;20102;-69
2023/07/14 12:19:40;;;;;;;3.40;2.20;;;25.10;99.90;;;;;;5104075;28;20453;-70
2023/07/14 12:22:09;;;;;;;5.00;2.72;;;25.30;99.90;;;;;;5098133;28;20042;-70
2023/07/14 12:24:42;;;;;;;3.30;2.78;;;25.50;99.90;;;;;;5086430;28;20074;-70
2023/07/14 12:27:31;;;;;;;4.35;2.50;;;25.70;99.90;;;;;;5098977;28;20020;-71
2023/07/14 12:30:19;;;;;;;4.88;2.30;;;26.20;99.90;;;;;;5089279;28;20042;-70
2023/07/14 12:32:45;;;;;;;5.07;2.33;;;26.30;99.90;;;;;;5096616;28;20065;-71
2023/07/14 12:35:16;;;;;;;3.83;2.63;;;26.40;99.90;;;;;;5091900;28;20040;-70
2023/07/14 12:37:42;;;;;;;5.53;2.75;;;26.50;99.90;;;;;;5096512;28;20039;-71
2023/07/14 12:40:15;;;;;;;3.40;2.72;;;26.50;99.90;;;;;;5098915;28;20179;-71
2023/07/14 12:42:42;;;;;;;3.95;2.70;;;26.80;99.90;;;;;;5094582;28;20044;-70
2023/07/14 12:45:13;;;;;;;6.50;2.83;;;27.10;99.90;;;;;;5096985;28;20941;-72
2023/07/14 12:47:46;;;;;;;5.10;2.67;;;27.10;99.90;;;;;;5095832;28;21018;-70
2023/07/14 12:50:30;;;;;;;5.85;2.90;;;26.90;99.90;;;;;;5096607;28;20138;-71
2023/07/14 12:52:56;;;;;;;5.85;2.90;;;26.80;99.90;;;;;;5093520;28;20638;-71
2023/07/14 12:55:24;;;;;;;5.38;3.47;;;26.90;99.90;;;;;;5096406;28;20800;-71
2023/07/14 12:57:50;;;;;;;5.03;3.08;;;27.00;99.90;;;;;;5097119;28;20036;-70